Terminal Aerodrome Forecast
Issued by NWS Chicago, IL

Home | Current Version | Previous Version | Text Only | Print | Product List | Glossary Off
Versions: 1 2 3 4 5 6 7 8 9 10 11 12 13 14 15 16 17 18 19 20 21 22 23 24 25 26 27 28 29

000
FTUS43 KLOT 232330
TAFRFD
TAF
KRFD 232330Z 2400/2424 06010KT P6SM VCTS SCT015 BKN035CB
     FM240015 27020G30KT 3SM TSRA SCT015 OVC040CB
     FM240130 VRB06KT 6SM -SHRA VCTS BKN040CB
     FM240900 18006KT P6SM VCTS BKN025CB
     FM241200 21010G16KT P6SM SCT040
     FM242000 24012G19KT P6SM VCTS BKN040CB=

USA.gov is the U.S. government's official web portal to all federal, state and local government web resources and services.